Time;durP1;ratioP1;P1;durP2;ratioP2;P2;SDS_P1;SDS_P2;PMS_P1;PMS_P2;Temp;Humidity;BMP_temperature;BMP_pressure;BME280_temperature;BME280_humidity;BME280_pressure;Samples;Min_cycle;Max_cycle;Signal;HPM_P1;HPM_P2
2021/11/12 00:03:02;;;;;;;119.47;32.95;;;2.10;66.60;;;;;;5092686;28;20270;-69
2021/11/12 00:13:44;;;;;;;170.90;31.80;;;1.90;69.40;;;;;;5092824;28;20580;-70
2021/11/12 00:16:11;;;;;;;128.52;31.85;;;1.90;69.20;;;;;;5092042;28;20207;-70
2021/11/12 00:18:39;;;;;;;167.05;37.25;;;2.00;69.80;;;;;;5092578;28;20554;-69
2021/11/12 00:21:07;;;;;;;142.63;29.92;;;1.90;70.70;;;;;;5092368;28;20259;-69
2021/11/12 00:23:37;;;;;;;143.07;34.40;;;1.90;70.40;;;;;;5092363;28;20235;-70
2021/11/12 00:26:06;;;;;;;192.30;37.45;;;1.90;70.60;;;;;;5091908;28;20210;-69
2021/11/12 00:28:37;;;;;;;132.52;30.38;;;2.00;72.30;;;;;;5092191;28;20206;-71
2021/11/12 00:31:10;;;;;;;112.40;32.70;;;1.90;72.50;;;;;;5092466;28;20224;-69
2021/11/12 00:33:54;;;;;;;149.63;33.17;;;2.00;72.80;;;;;;5092296;28;20579;-70
2021/11/12 00:36:33;;;;;;;141.52;33.42;;;2.00;74.90;;;;;;5091921;28;20208;-69
2021/11/12 00:39:07;;;;;;;137.20;33.25;;;2.00;75.40;;;;;;5092045;28;20212;-70
2021/11/12 00:41:38;;;;;;;159.52;32.85;;;2.00;76.70;;;;;;5092202;28;20231;-69
2021/11/12 00:44:13;;;;;;;115.28;31.05;;;1.80;76.70;;;;;;5092014;28;20197;-70
2021/11/12 00:46:46;;;;;;;120.05;32.15;;;1.90;77.10;;;;;;5091578;28;20249;-70
2021/11/12 00:49:17;;;;;;;135.30;29.70;;;1.90;78.40;;;;;;5091926;28;20204;-69
2021/11/12 00:51:44;;;;;;;129.40;31.23;;;1.80;79.00;;;;;;5091817;28;20223;-69
2021/11/12 00:54:12;;;;;;;115.65;31.10;;;1.80;79.30;;;;;;5091965;28;20259;-70
2021/11/12 00:56:41;;;;;;;150.48;38.13;;;1.70;80.60;;;;;;5091275;28;20295;-69
2021/11/12 00:59:09;;;;;;;128.35;32.85;;;1.70;81.00;;;;;;5091900;28;20691;-69
2021/11/12 01:01:38;;;;;;;135.38;36.10;;;1.80;81.80;;;;;;5091694;28;20673;-69
2021/11/12 01:04:07;;;;;;;119.90;30.48;;;1.90;99.90;;;;;;5091729;28;20250;-69
2021/11/12 01:06:35;;;;;;;107.15;29.88;;;1.90;99.90;;;;;;5091517;28;20200;-70
2021/11/12 01:09:02;;;;;;;124.68;30.00;;;1.90;99.90;;;;;;5091837;28;20223;-69
2021/11/12 01:11:29;;;;;;;128.18;32.15;;;1.60;99.90;;;;;;5091495;28;20228;-69
2021/11/12 01:13:58;;;;;;;117.22;30.58;;;1.50;99.90;;;;;;5091561;28;20315;-69
2021/11/12 01:16:26;;;;;;;123.60;32.88;;;1.50;99.90;;;;;;5091196;28;20208;-69
2021/11/12 01:18:53;;;;;;;122.43;32.92;;;1.60;99.90;;;;;;5091452;28;20227;-69
2021/11/12 01:21:21;;;;;;;117.38;32.15;;;1.60;99.90;;;;;;5091641;28;20363;-69
2021/11/12 01:23:50;;;;;;;115.43;29.88;;;1.70;99.90;;;;;;5091741;28;20289;-69
2021/11/12 01:26:18;;;;;;;122.45;29.70;;;1.80;99.90;;;;;;5091087;28;20200;-69
2021/11/12 01:28:45;;;;;;;112.03;30.80;;;1.80;99.90;;;;;;5091485;28;20235;-69
2021/11/12 01:31:14;;;;;;;112.63;30.00;;;1.80;99.90;;;;;;5091200;28;20228;-69
2021/11/12 01:33:41;;;;;;;108.75;29.38;;;1.90;99.90;;;;;;5091604;28;20227;-69
2021/11/12 01:36:19;;;;;;;116.20;29.70;;;1.90;99.90;;;;;;5091164;28;20208;-69
2021/11/12 01:38:47;;;;;;;106.95;28.35;;;1.90;99.90;;;;;;5091390;28;20212;-69
2021/11/12 01:41:14;;;;;;;122.00;32.45;;;1.80;99.90;;;;;;5091236;28;20220;-69
2021/11/12 01:43:44;;;;;;;133.00;30.75;;;1.80;99.90;;;;;;5091326;28;20235;-70
2021/11/12 01:51:50;;;;;;;128.38;27.48;;;1.70;99.90;;;;;;5085689;28;20212;-69
2021/11/12 01:54:39;;;;;;;146.77;34.85;;;1.40;99.90;;;;;;5091114;28;20226;-69
2021/11/12 01:59:53;;;;;;;135.60;31.92;;;1.30;99.90;;;;;;5093673;28;20199;-70
2021/11/12 02:02:22;;;;;;;119.90;33.13;;;1.60;99.90;;;;;;5094849;28;20223;-70
2021/11/12 02:04:50;;;;;;;112.07;32.22;;;1.70;99.90;;;;;;5093300;28;20203;-69
2021/11/12 02:07:17;;;;;;;118.10;36.25;;;1.80;99.90;;;;;;5094852;28;20648;-69
2021/11/12 02:09:45;;;;;;;113.55;31.48;;;1.80;99.90;;;;;;5094812;28;20215;-69
2021/11/12 02:12:20;;;;;;;124.15;29.92;;;1.70;99.90;;;;;;5094642;28;20277;-70
2021/11/12 02:14:48;;;;;;;107.40;29.17;;;1.60;99.90;;;;;;5094846;28;20599;-70
2021/11/12 02:17:18;;;;;;;129.88;28.17;;;1.70;99.90;;;;;;5094622;28;20279;-69
2021/11/12 02:19:51;;;;;;;134.07;31.50;;;1.60;99.90;;;;;;5094897;28;20572;-70
2021/11/12 02:22:22;;;;;;;116.30;29.92;;;1.70;99.90;;;;;;5094613;28;20235;-69
2021/11/12 02:24:51;;;;;;;109.57;28.05;;;1.70;99.90;;;;;;5094758;28;20207;-69
2021/11/12 02:27:19;;;;;;;109.10;29.05;;;1.60;99.90;;;;;;5094564;28;20303;-69
2021/11/12 02:29:50;;;;;;;108.88;30.38;;;1.60;99.90;;;;;;5094696;28;20296;-69
2021/11/12 02:32:19;;;;;;;106.68;27.83;;;1.70;99.90;;;;;;5094658;28;20231;-70
2021/11/12 02:34:47;;;;;;;117.05;28.83;;;1.80;99.90;;;;;;5094206;28;20231;-69
2021/11/12 02:37:14;;;;;;;115.25;30.85;;;1.50;99.90;;;;;;5094080;28;20247;-69
2021/11/12 02:39:43;;;;;;;139.77;32.20;;;1.50;99.90;;;;;;5094615;28;20624;-69
2021/11/12 02:42:12;;;;;;;116.18;31.15;;;1.60;99.90;;;;;;5094357;28;20667;-69
2021/11/12 02:44:39;;;;;;;114.45;28.92;;;1.70;99.90;;;;;;5094332;28;20573;-69
2021/11/12 02:47:08;;;;;;;139.35;31.80;;;1.70;99.90;;;;;;5094013;28;20236;-70
2021/11/12 02:49:35;;;;;;;120.32;33.13;;;1.70;99.90;;;;;;5094072;28;20240;-69
2021/11/12 02:52:02;;;;;;;113.90;29.10;;;1.80;99.90;;;;;;5093957;28;20312;-69
2021/11/12 02:54:28;;;;;;;115.57;29.67;;;1.90;99.90;;;;;;5094181;28;20224;-70
2021/11/12 02:56:58;;;;;;;137.73;32.17;;;1.70;99.90;;;;;;5093737;28;20215;-70
2021/11/12 02:59:26;;;;;;;106.85;31.20;;;1.70;99.90;;;;;;5093959;28;20204;-70
2021/11/12 03:01:55;;;;;;;103.47;27.85;;;1.70;99.90;;;;;;5093842;28;20319;-70
2021/11/12 03:04:22;;;;;;;118.05;28.77;;;1.70;99.90;;;;;;5094098;28;20270;-69
2021/11/12 03:06:49;;;;;;;105.05;29.30;;;1.40;99.90;;;;;;5093720;28;20661;-70
2021/11/12 03:09:16;;;;;;;125.80;30.30;;;1.50;99.90;;;;;;5093695;28;20215;-70
2021/11/12 03:11:44;;;;;;;132.85;30.40;;;1.50;99.90;;;;;;5093422;28;20311;-69
2021/11/12 03:14:14;;;;;;;115.28;29.63;;;1.50;99.90;;;;;;5093671;28;20217;-70
2021/11/12 03:16:42;;;;;;;110.28;30.95;;;1.60;99.90;;;;;;5093206;28;20219;-70
2021/11/12 03:19:12;;;;;;;115.90;30.27;;;1.80;99.90;;;;;;5093643;28;20243;-69
2021/11/12 03:21:42;;;;;;;114.75;27.75;;;1.70;99.90;;;;;;5093620;28;20602;-69
2021/11/12 03:24:13;;;;;;;117.55;31.42;;;1.40;99.90;;;;;;5093465;28;20664;-69
2021/11/12 03:26:43;;;;;;;130.48;29.25;;;1.50;99.90;;;;;;5093193;28;20227;-69
2021/11/12 03:59:55;;;;;;;111.18;29.95;;;1.60;99.90;;;;;;5092786;28;20286;-70
2021/11/12 04:02:35;;;;;;;154.48;31.42;;;1.40;99.90;;;;;;5092660;28;20211;-70
2021/11/12 04:05:14;;;;;;;149.80;29.50;;;1.30;99.90;;;;;;5092633;28;20200;-70
2021/11/12 04:18:50;;;;;;;137.48;30.58;;;1.10;99.90;;;;;;5092621;28;20678;-69
2021/11/12 05:11:27;;;;;;;116.97;29.55;;;0.90;99.90;;;;;;5009415;28;20308;-69
2021/11/12 05:14:09;;;;;;;169.55;36.20;;;1.00;99.90;;;;;;5009349;28;20234;-69
2021/11/12 05:44:06;;;;;;;123.38;30.52;;;1.20;99.90;;;;;;5095470;28;20300;-69
2021/11/12 05:46:42;;;;;;;116.85;30.90;;;1.10;99.90;;;;;;5094745;28;20208;-69
2021/11/12 05:52:11;;;;;;;137.43;32.00;;;1.20;99.90;;;;;;5095267;28;20297;-69
2021/11/12 06:00:46;;;;;;;131.27;28.00;;;1.40;99.90;;;;;;5093368;28;20207;-69
2021/11/12 06:03:13;;;;;;;109.97;29.40;;;1.10;99.90;;;;;;5095042;28;20215;-69
2021/11/12 06:05:40;;;;;;;116.57;28.25;;;1.10;99.90;;;;;;5094711;28;20250;-69
2021/11/12 06:08:07;;;;;;;103.55;28.50;;;1.10;99.90;;;;;;5095033;28;20207;-69
2021/11/12 06:10:34;;;;;;;115.57;29.00;;;1.10;99.90;;;;;;5094776;28;20361;-69
2021/11/12 06:13:01;;;;;;;112.68;28.65;;;1.10;99.90;;;;;;5094849;28;20388;-69
2021/11/12 06:15:28;;;;;;;111.70;30.50;;;1.10;99.90;;;;;;5094289;28;20220;-69
2021/11/12 06:17:57;;;;;;;105.72;27.73;;;1.10;99.90;;;;;;5094713;28;20236;-68
2021/11/12 06:20:24;;;;;;;103.38;28.15;;;0.90;99.90;;;;;;5094656;28;20282;-69
2021/11/12 06:22:51;;;;;;;118.47;31.42;;;1.00;99.90;;;;;;5094691;28;20215;-69
2021/11/12 06:25:18;;;;;;;105.63;29.48;;;1.20;99.90;;;;;;5094433;28;20743;-69
2021/11/12 06:27:45;;;;;;;110.82;29.00;;;1.20;99.90;;;;;;5094269;28;20207;-69
2021/11/12 06:30:12;;;;;;;101.97;28.50;;;1.00;99.90;;;;;;5094839;28;20205;-69
2021/11/12 06:32:41;;;;;;;119.65;30.60;;;1.10;99.90;;;;;;5094585;28;20210;-69
2021/11/12 06:35:09;;;;;;;117.30;31.98;;;1.10;99.90;;;;;;5094362;28;20220;-69
2021/11/12 06:37:36;;;;;;;99.75;27.20;;;1.10;99.90;;;;;;5093962;28;20212;-69
2021/11/12 06:40:04;;;;;;;109.30;29.67;;;1.10;99.90;;;;;;5094539;28;20688;-69
2021/11/12 06:42:36;;;;;;;107.38;31.23;;;1.20;99.90;;;;;;5094280;28;20707;-69
2021/11/12 06:50:37;;;;;;;106.05;29.95;;;1.40;99.90;;;;;;5094241;28;20794;-69
2021/11/12 06:53:06;;;;;;;116.45;28.05;;;1.20;99.90;;;;;;5094368;28;20212;-68
2021/11/12 06:55:33;;;;;;;133.90;32.13;;;1.00;99.90;;;;;;5093789;28;20715;-69
2021/11/12 06:58:00;;;;;;;108.18;29.52;;;1.00;99.90;;;;;;5094016;28;20204;-69
2021/11/12 07:00:27;;;;;;;147.00;30.27;;;0.90;99.90;;;;;;5093866;28;20256;-69
2021/11/12 07:02:54;;;;;;;96.47;28.90;;;0.90;99.90;;;;;;5093802;28;20319;-69
2021/11/12 07:05:21;;;;;;;107.80;31.05;;;1.10;99.90;;;;;;5093956;28;20674;-69
2021/11/12 07:07:50;;;;;;;117.70;26.15;;;1.20;99.90;;;;;;5093985;28;20266;-69
2021/11/12 07:10:17;;;;;;;107.32;28.52;;;1.00;99.90;;;;;;5093752;28;20207;-69
2021/11/12 07:12:44;;;;;;;114.78;27.75;;;1.00;99.90;;;;;;5093796;28;20208;-69
2021/11/12 07:15:11;;;;;;;100.18;28.58;;;1.00;99.90;;;;;;5093275;28;20228;-69
2021/11/12 07:17:38;;;;;;;119.45;29.25;;;0.90;99.90;;;;;;5093903;28;20208;-69
2021/11/12 07:20:06;;;;;;;107.60;27.52;;;0.90;99.90;;;;;;5093588;28;20208;-69
2021/11/12 07:22:33;;;;;;;112.50;33.15;;;0.90;99.90;;;;;;5093542;28;20296;-68
2021/11/12 07:25:01;;;;;;;102.15;29.85;;;1.20;99.90;;;;;;5093356;28;20295;-69
2021/11/12 07:27:29;;;;;;;102.55;29.67;;;1.30;99.90;;;;;;5078099;28;20211;-69
2021/11/12 07:29:56;;;;;;;117.28;32.63;;;1.40;99.90;;;;;;5073157;28;20246;-69
2021/11/12 07:32:23;;;;;;;115.93;30.48;;;1.50;99.90;;;;;;5084844;28;20329;-69
2021/11/12 07:34:51;;;;;;;104.63;31.00;;;1.10;99.90;;;;;;5093513;28;20224;-69
2021/11/12 07:37:19;;;;;;;101.57;29.15;;;1.20;99.90;;;;;;5093102;28;20230;-69
2021/11/12 07:39:51;;;;;;;105.20;29.55;;;1.40;99.90;;;;;;5092723;28;20695;-68
2021/11/12 07:45:13;;;;;;;100.97;27.65;;;1.50;99.90;;;;;;5076922;28;20681;-69
2021/11/12 07:47:40;;;;;;;105.90;27.70;;;1.40;99.90;;;;;;5092849;28;20208;-69
2021/11/12 07:50:09;;;;;;;106.22;28.92;;;1.20;99.90;;;;;;5092893;28;20204;-68
2021/11/12 07:52:38;;;;;;;106.25;28.27;;;1.30;99.90;;;;;;5092942;28;20243;-69
2021/11/12 07:55:07;;;;;;;102.53;28.83;;;1.00;99.90;;;;;;5093017;28;20315;-69
2021/11/12 07:57:35;;;;;;;113.25;28.00;;;1.30;99.90;;;;;;5092260;28;20616;-69
2021/11/12 08:00:04;;;;;;;108.13;29.15;;;1.20;99.90;;;;;;5092880;28;20204;-70
2021/11/12 08:02:31;;;;;;;110.55;29.40;;;1.50;99.90;;;;;;5093117;28;20584;-70
2021/11/12 08:05:02;;;;;;;103.70;30.67;;;1.30;99.90;;;;;;5092906;28;20239;-69
2021/11/12 08:07:31;;;;;;;123.35;33.47;;;1.30;99.90;;;;;;5092682;28;20560;-69
2021/11/12 08:10:00;;;;;;;107.40;28.80;;;1.50;99.90;;;;;;5092859;28;20295;-69
2021/11/12 08:12:30;;;;;;;107.40;27.10;;;1.30;99.90;;;;;;5092773;28;20216;-70
2021/11/12 08:17:47;;;;;;;103.10;28.90;;;1.70;99.90;;;;;;5091974;28;20205;-70
2021/11/12 08:20:23;;;;;;;102.53;27.80;;;1.60;99.90;;;;;;5092523;28;20669;-69
2021/11/12 08:22:56;;;;;;;107.57;30.58;;;1.60;99.90;;;;;;5092607;28;20231;-69
2021/11/12 08:25:26;;;;;;;108.85;30.10;;;1.80;99.90;;;;;;5092158;28;20208;-69
2021/11/12 08:28:03;;;;;;;103.57;31.10;;;1.70;99.90;;;;;;5092394;28;20204;-69
2021/11/12 08:33:27;;;;;;;98.65;25.40;;;1.90;99.90;;;;;;5091809;28;20204;-70
2021/11/12 08:36:06;;;;;;;110.60;29.33;;;1.70;99.90;;;;;;5091919;28;20224;-70
2021/11/12 08:38:40;;;;;;;102.00;29.88;;;1.50;99.90;;;;;;5092078;28;20237;-70
2021/11/12 08:41:11;;;;;;;106.50;26.67;;;1.70;99.90;;;;;;5092086;28;20274;-69
2021/11/12 08:43:41;;;;;;;106.43;30.35;;;1.60;99.90;;;;;;5092422;28;20247;-68
2021/11/12 08:46:16;;;;;;;111.80;29.77;;;1.60;99.90;;;;;;5091803;28;20233;-69
2021/11/12 08:48:53;;;;;;;117.90;30.88;;;1.70;99.90;;;;;;5092060;28;20553;-69
2021/11/12 08:51:21;;;;;;;111.82;32.60;;;2.00;99.90;;;;;;5091827;28;20719;-69
2021/11/12 08:53:48;;;;;;;103.07;28.33;;;2.00;99.90;;;;;;5092072;28;20215;-69
2021/11/12 08:56:16;;;;;;;105.65;30.05;;;2.10;99.90;;;;;;5091615;28;20704;-69
2021/11/12 08:58:45;;;;;;;104.95;28.98;;;2.10;99.90;;;;;;5091922;28;20204;-69
2021/11/12 09:01:14;;;;;;;118.43;33.15;;;1.90;99.90;;;;;;5091767;28;20803;-69
2021/11/12 09:03:41;;;;;;;106.47;27.45;;;2.00;99.90;;;;;;5091654;28;20235;-69
2021/11/12 09:06:08;;;;;;;107.50;31.45;;;2.00;99.90;;;;;;5091624;28;20222;-69
2021/11/12 09:08:36;;;;;;;101.97;29.38;;;2.10;99.90;;;;;;5091652;28;20294;-69
2021/11/12 09:11:05;;;;;;;109.43;31.80;;;2.20;99.90;;;;;;5091781;28;20289;-69
2021/11/12 09:13:39;;;;;;;111.05;29.77;;;2.40;99.90;;;;;;5091567;28;20208;-69
2021/11/12 09:16:09;;;;;;;101.68;28.15;;;2.10;99.90;;;;;;5091115;28;20709;-69
2021/11/12 09:18:37;;;;;;;103.78;27.95;;;1.90;99.90;;;;;;5091903;28;20775;-69
2021/11/12 09:21:04;;;;;;;102.50;27.85;;;1.90;99.90;;;;;;5091576;28;20318;-68
2021/11/12 09:23:32;;;;;;;107.82;31.85;;;2.10;99.90;;;;;;5091583;28;20640;-69
2021/11/12 09:25:59;;;;;;;110.00;31.25;;;2.50;99.90;;;;;;5091620;28;20207;-69
2021/11/12 09:28:25;;;;;;;117.55;31.45;;;2.60;99.90;;;;;;5091417;28;20239;-67
2021/11/12 09:30:53;;;;;;;112.32;30.48;;;3.00;99.90;;;;;;5091295;28;20259;-69
2021/11/12 09:33:20;;;;;;;107.40;30.48;;;2.90;99.90;;;;;;5091666;28;20208;-69
2021/11/12 09:35:48;;;;;;;106.25;32.03;;;2.80;99.90;;;;;;5091332;28;20331;-69
2021/11/12 09:38:15;;;;;;;102.18;29.05;;;2.90;99.90;;;;;;5091600;28;20231;-69
2021/11/12 09:40:42;;;;;;;105.35;30.33;;;2.90;99.90;;;;;;5091326;28;20220;-69
2021/11/12 09:43:09;;;;;;;104.10;29.35;;;2.80;99.90;;;;;;5091348;28;20201;-69
2021/11/12 09:45:36;;;;;;;104.68;30.73;;;3.00;99.90;;;;;;5091275;28;20291;-66
2021/11/12 09:48:03;;;;;;;113.18;30.77;;;3.10;99.90;;;;;;5091462;28;20236;-69
2021/11/12 09:50:32;;;;;;;108.72;29.95;;;2.90;99.90;;;;;;5091429;28;20224;-69
2021/11/12 09:53:01;;;;;;;108.70;32.20;;;2.80;99.90;;;;;;5091455;28;20239;-70
2021/11/12 09:55:30;;;;;;;106.57;31.45;;;3.10;99.90;;;;;;5090815;28;20759;-66
2021/11/12 09:58:00;;;;;;;107.72;30.15;;;3.30;99.90;;;;;;5091193;28;20752;-67
2021/11/12 10:00:29;;;;;;;102.45;30.52;;;3.50;99.90;;;;;;5091310;28;20322;-67
2021/11/12 10:02:57;;;;;;;105.53;30.30;;;3.40;99.90;;;;;;5091347;28;20279;-67
2021/11/12 10:05:34;;;;;;;93.95;28.50;;;3.40;99.90;;;;;;5091072;28;20291;-69
2021/11/12 10:08:17;;;;;;;101.93;25.75;;;2.90;99.90;;;;;;5091289;28;20311;-70
2021/11/12 10:10:46;;;;;;;110.50;32.05;;;2.80;99.90;;;;;;5091414;28;20307;-69
2021/11/12 10:13:22;;;;;;;111.32;30.20;;;3.30;99.90;;;;;;5091112;28;20566;-69
2021/11/12 10:15:54;;;;;;;104.10;29.98;;;3.50;99.90;;;;;;5090660;28;20315;-67
2021/11/12 10:18:21;;;;;;;106.50;32.08;;;3.40;99.90;;;;;;5091210;28;20633;-67
2021/11/12 10:20:57;;;;;;;102.10;30.70;;;3.60;99.90;;;;;;5093022;28;20281;-67
2021/11/12 10:23:31;;;;;;;103.82;29.95;;;3.70;99.90;;;;;;5094996;28;20239;-66
2021/11/12 10:26:02;;;;;;;96.75;30.25;;;3.70;99.90;;;;;;5094364;28;20201;-67
2021/11/12 10:28:40;;;;;;;106.95;30.20;;;3.80;99.90;;;;;;5094733;28;20369;-67
2021/11/12 10:31:16;;;;;;;100.35;30.08;;;3.70;99.90;;;;;;5094494;28;20258;-69
2021/11/12 10:33:44;;;;;;;104.82;30.77;;;3.70;99.90;;;;;;5094478;28;20249;-69
2021/11/12 10:36:12;;;;;;;100.75;31.20;;;3.70;99.90;;;;;;5094177;28;20259;-69
2021/11/12 10:38:41;;;;;;;102.55;31.90;;;3.80;99.90;;;;;;5094424;28;20211;-66
2021/11/12 10:41:23;;;;;;;101.32;29.10;;;3.60;99.90;;;;;;5094255;28;20224;-66
2021/11/12 10:43:52;;;;;;;99.90;30.23;;;3.60;99.90;;;;;;5094357;28;20680;-67
2021/11/12 10:46:37;;;;;;;102.07;30.67;;;3.70;99.90;;;;;;5094017;28;20240;-67
2021/11/12 10:49:29;;;;;;;107.63;32.28;;;3.90;99.90;;;;;;5094147;28;20215;-67
2021/11/12 10:51:58;;;;;;;106.35;31.92;;;3.60;99.90;;;;;;5094015;28;20267;-67
2021/11/12 10:54:39;;;;;;;103.28;31.08;;;3.80;99.90;;;;;;5094252;28;20243;-67
2021/11/12 10:57:07;;;;;;;96.28;28.40;;;3.80;99.90;;;;;;5093844;28;20306;-67
2021/11/12 10:59:51;;;;;;;97.45;28.70;;;3.80;99.90;;;;;;5094072;28;20333;-69
2021/11/12 11:02:22;;;;;;;103.32;30.85;;;3.30;99.90;;;;;;5093770;28;20285;-69
2021/11/12 11:04:49;;;;;;;112.00;30.23;;;3.50;99.90;;;;;;5093849;28;20208;-67
2021/11/12 11:07:20;;;;;;;107.47;32.42;;;3.70;99.90;;;;;;5093864;28;20309;-69
2021/11/12 11:09:49;;;;;;;110.65;32.50;;;3.50;99.90;;;;;;5093981;28;20204;-66
2021/11/12 11:12:39;;;;;;;105.32;32.03;;;3.90;99.90;;;;;;5093580;28;20279;-67
2021/11/12 11:15:22;;;;;;;106.90;31.85;;;4.40;99.90;;;;;;5093903;28;20644;-67
2021/11/12 11:17:50;;;;;;;99.35;30.52;;;4.40;99.90;;;;;;5093701;28;20687;-68
2021/11/12 11:20:20;;;;;;;101.20;31.10;;;4.10;99.90;;;;;;5093755;28;20621;-69
2021/11/12 11:22:55;;;;;;;103.47;29.50;;;4.30;99.90;;;;;;5093687;28;20205;-69
2021/11/12 11:25:26;;;;;;;100.60;28.25;;;4.70;99.90;;;;;;5093456;28;20212;-69
2021/11/12 11:27:56;;;;;;;99.38;28.67;;;4.20;99.90;;;;;;5093471;28;20216;-69
2021/11/12 11:30:23;;;;;;;94.70;29.13;;;4.50;99.90;;;;;;5093464;28;20239;-68
2021/11/12 11:32:51;;;;;;;101.57;29.20;;;4.50;99.90;;;;;;5093446;28;20291;-67
2021/11/12 11:35:20;;;;;;;99.45;28.02;;;4.60;99.90;;;;;;5093187;28;20258;-69
2021/11/12 11:37:47;;;;;;;95.30;27.90;;;4.10;99.90;;;;;;5093591;28;20244;-69
2021/11/12 11:40:16;;;;;;;110.35;29.95;;;3.80;99.90;;;;;;5093420;28;20303;-69
2021/11/12 11:42:45;;;;;;;91.28;25.92;;;4.40;99.90;;;;;;5093324;28;20706;-70
2021/11/12 11:45:13;;;;;;;101.00;30.15;;;4.30;99.90;;;;;;5093040;28;20250;-69
2021/11/12 11:47:43;;;;;;;97.30;30.30;;;4.70;99.90;;;;;;5092811;28;20731;-69
2021/11/12 11:50:24;;;;;;;96.63;27.58;;;4.50;99.90;;;;;;5092897;28;20704;-67
2021/11/12 11:52:51;;;;;;;96.80;28.60;;;4.70;99.90;;;;;;5093150;28;20213;-67
2021/11/12 11:55:37;;;;;;;97.13;28.67;;;5.00;99.90;;;;;;5092962;28;20794;-68
2021/11/12 11:58:32;;;;;;;98.03;29.35;;;5.30;99.90;;;;;;5092743;28;20291;-67
2021/11/12 12:01:34;;;;;;;98.05;28.20;;;5.20;99.90;;;;;;5092842;28;20227;-67
2021/11/12 12:04:32;;;;;;;96.57;27.48;;;5.10;99.90;;;;;;5087882;28;20622;-67
2021/11/12 12:07:25;;;;;;;94.25;28.67;;;5.10;99.90;;;;;;5092229;28;20291;-70
2021/11/12 12:09:58;;;;;;;93.32;28.13;;;5.20;99.90;;;;;;5092810;28;20200;-68
2021/11/12 12:12:55;;;;;;;97.43;29.10;;;4.90;99.90;;;;;;5092507;28;20211;-67
2021/11/12 12:15:38;;;;;;;98.40;28.65;;;5.00;99.90;;;;;;5092289;28;20327;-67
2021/11/12 12:18:20;;;;;;;93.13;27.08;;;4.90;99.90;;;;;;5092508;28;20247;-67
2021/11/12 12:21:21;;;;;;;89.68;26.30;;;5.10;99.90;;;;;;5092769;28;20757;-68
2021/11/12 12:32:50;;;;;;;96.20;29.48;;;4.90;99.90;;;;;;5092173;28;20223;-67
2021/11/12 13:20:40;;;;;;;94.60;26.38;;;5.00;99.90;;;;;;5068277;28;20223;-69
2021/11/12 13:23:15;;;;;;;101.30;27.35;;;4.70;99.90;;;;;;5068074;28;20597;-69
2021/11/12 13:25:43;;;;;;;97.75;27.15;;;4.80;99.90;;;;;;5067756;28;20204;-70
2021/11/12 13:28:14;;;;;;;97.20;30.60;;;4.90;99.90;;;;;;5067963;28;20215;-69
2021/11/12 13:30:44;;;;;;;93.57;26.42;;;4.60;99.90;;;;;;5068190;28;20320;-68
2021/11/12 13:33:28;;;;;;;100.82;29.30;;;4.80;99.90;;;;;;5067974;28;20753;-69
2021/11/12 13:35:56;;;;;;;96.25;25.50;;;5.00;99.90;;;;;;5067702;28;20295;-69
2021/11/12 13:38:24;;;;;;;100.47;27.80;;;5.00;99.90;;;;;;5067799;28;20283;-69
2021/11/12 13:40:50;;;;;;;94.82;25.65;;;5.00;99.90;;;;;;5067656;28;20229;-69
2021/11/12 13:43:24;;;;;;;94.85;27.58;;;4.90;99.90;;;;;;5067558;28;20225;-69
2021/11/12 13:45:56;;;;;;;99.65;29.02;;;4.80;99.90;;;;;;5067403;28;20337;-69
2021/11/12 13:48:25;;;;;;;101.78;30.25;;;4.80;99.90;;;;;;5067778;28;20209;-69
2021/11/12 13:50:55;;;;;;;97.13;28.42;;;4.80;99.90;;;;;;5067863;28;20235;-69
2021/11/12 13:53:26;;;;;;;99.55;26.63;;;4.70;99.90;;;;;;5063416;28;20663;-68
2021/11/12 13:55:53;;;;;;;98.25;26.80;;;4.60;99.90;;;;;;5054190;28;20205;-69
2021/11/12 13:58:23;;;;;;;100.88;27.25;;;4.40;99.90;;;;;;5054393;28;20253;-69
2021/11/12 14:00:50;;;;;;;98.03;27.80;;;4.30;99.90;;;;;;5054246;28;20222;-68
2021/11/12 14:03:19;;;;;;;97.10;27.40;;;4.30;99.90;;;;;;5054010;28;20283;-69
2021/11/12 14:05:59;;;;;;;98.50;27.27;;;4.30;99.90;;;;;;5053710;28;20212;-69
2021/11/12 14:08:35;;;;;;;95.18;27.88;;;4.30;99.90;;;;;;5054240;28;20205;-69
2021/11/12 14:11:04;;;;;;;100.35;27.55;;;4.30;99.90;;;;;;5054165;28;20227;-68
2021/11/12 14:13:39;;;;;;;102.05;29.63;;;4.30;99.90;;;;;;5054063;28;20228;-69
2021/11/12 14:16:12;;;;;;;96.38;28.65;;;4.30;99.90;;;;;;5053578;28;20213;-69
2021/11/12 14:18:50;;;;;;;107.38;30.27;;;4.20;99.90;;;;;;5053907;28;20201;-69
2021/11/12 14:21:25;;;;;;;102.53;28.63;;;4.20;99.90;;;;;;5053959;28;20233;-69
2021/11/12 14:24:07;;;;;;;103.70;30.55;;;4.10;99.90;;;;;;5053746;28;20232;-69
2021/11/12 14:26:36;;;;;;;104.75;30.20;;;4.20;99.90;;;;;;5053467;28;20271;-69
2021/11/12 14:29:07;;;;;;;104.07;29.98;;;4.20;99.90;;;;;;5053947;28;20210;-69
2021/11/12 14:32:09;;;;;;;110.30;32.92;;;4.20;99.90;;;;;;5053832;28;20233;-69
2021/11/12 14:34:57;;;;;;;110.45;32.17;;;4.00;99.90;;;;;;5053688;28;20209;-70
2021/11/12 14:37:40;;;;;;;105.15;31.23;;;4.00;99.90;;;;;;5053437;28;20210;-69
2021/11/12 14:40:10;;;;;;;108.05;31.10;;;3.90;99.90;;;;;;5053577;28;20686;-68
2021/11/12 14:42:50;;;;;;;106.80;31.60;;;3.80;99.90;;;;;;5053350;28;20265;-69
2021/11/12 14:45:24;;;;;;;101.30;28.63;;;3.70;99.90;;;;;;5053290;28;20216;-68
2021/11/12 14:47:59;;;;;;;111.80;31.85;;;3.70;99.90;;;;;;5053324;28;20218;-69
2021/11/12 14:50:37;;;;;;;112.97;31.83;;;3.60;99.90;;;;;;5053409;28;20283;-69
2021/11/12 14:53:15;;;;;;;109.25;30.00;;;3.40;99.90;;;;;;5053371;28;20201;-69
2021/11/12 14:55:44;;;;;;;105.00;29.80;;;3.50;99.90;;;;;;5052869;28;20205;-69
2021/11/12 14:58:15;;;;;;;105.43;31.42;;;3.50;99.90;;;;;;5053383;28;20308;-69
2021/11/12 15:00:42;;;;;;;112.93;31.63;;;3.50;99.90;;;;;;5053282;28;20233;-69
2021/11/12 15:03:09;;;;;;;104.45;30.73;;;3.60;99.90;;;;;;5052958;28;20740;-70
2021/11/12 15:05:37;;;;;;;116.13;31.30;;;3.60;99.90;;;;;;5051733;28;20210;-70
2021/11/12 15:08:11;;;;;;;104.63;29.42;;;3.40;99.90;;;;;;5052982;28;20674;-69
2021/11/12 15:10:39;;;;;;;104.57;29.33;;;3.40;99.90;;;;;;5053111;28;20658;-70
2021/11/12 15:13:06;;;;;;;112.40;30.67;;;3.30;99.90;;;;;;5052879;28;20210;-69
2021/11/12 15:15:34;;;;;;;104.20;29.33;;;3.30;99.90;;;;;;5052598;28;20653;-69
2021/11/12 15:18:04;;;;;;;105.22;29.70;;;3.40;99.90;;;;;;5052757;28;20704;-69
2021/11/12 15:20:32;;;;;;;107.88;32.05;;;3.40;99.90;;;;;;5050571;28;20439;-69
2021/11/12 15:23:17;;;;;;;112.88;32.15;;;3.40;99.90;;;;;;5047853;28;20213;-68
2021/11/12 15:25:58;;;;;;;102.43;28.75;;;3.40;99.90;;;;;;5051413;28;20209;-68
2021/11/12 15:28:33;;;;;;;106.68;28.60;;;3.30;99.90;;;;;;5052031;28;20256;-70
2021/11/12 15:31:05;;;;;;;103.82;27.83;;;3.20;99.90;;;;;;5051773;28;20224;-69
2021/11/12 15:33:33;;;;;;;108.80;30.20;;;3.20;99.90;;;;;;5051863;28;20301;-68
2021/11/12 15:36:03;;;;;;;106.47;26.88;;;3.20;99.90;;;;;;5051377;28;20677;-69
2021/11/12 15:38:33;;;;;;;102.03;28.95;;;3.10;99.90;;;;;;5052379;28;20304;-71
2021/11/12 15:41:05;;;;;;;107.68;30.55;;;3.10;99.90;;;;;;5049875;28;20217;-69
2021/11/12 15:43:40;;;;;;;104.35;30.73;;;3.20;99.90;;;;;;5051568;28;20225;-68
2021/11/12 15:46:12;;;;;;;100.57;25.90;;;3.10;99.90;;;;;;5052000;28;20296;-69
2021/11/12 15:48:40;;;;;;;100.47;27.88;;;3.10;99.90;;;;;;5051617;28;20678;-69
2021/11/12 15:53:53;;;;;;;112.68;31.17;;;3.10;99.90;;;;;;5049147;28;20200;-69
2021/11/12 15:59:19;;;;;;;106.72;27.48;;;3.20;99.90;;;;;;5051537;28;20693;-70
2021/11/12 16:02:26;;;;;;;113.45;29.98;;;3.20;99.90;;;;;;5051679;28;20240;-70
2021/11/12 16:05:27;;;;;;;103.40;28.83;;;3.30;99.90;;;;;;5052080;28;20216;-69
2021/11/12 16:10:55;;;;;;;111.70;32.95;;;3.20;99.90;;;;;;5038207;28;20284;-69
2021/11/12 16:13:24;;;;;;;101.35;28.42;;;3.20;99.90;;;;;;5052112;28;20616;-69
2021/11/12 16:24:12;;;;;;;123.60;37.45;;;3.10;99.90;;;;;;5051693;28;20596;-69
2021/11/12 16:26:43;;;;;;;115.97;31.40;;;3.10;99.90;;;;;;5051831;28;20212;-69
2021/11/12 16:29:23;;;;;;;113.60;29.65;;;3.10;99.90;;;;;;5062658;28;20209;-69
2021/11/12 16:31:50;;;;;;;107.30;30.30;;;3.10;99.90;;;;;;5071120;28;20341;-69
2021/11/12 16:34:19;;;;;;;108.88;29.77;;;3.10;99.90;;;;;;5071799;28;20730;-70
2021/11/12 16:36:51;;;;;;;107.07;29.98;;;3.10;99.90;;;;;;5071129;28;20295;-69
2021/11/12 16:39:24;;;;;;;105.60;29.90;;;3.00;99.90;;;;;;5071561;28;20623;-69
2021/11/12 16:41:57;;;;;;;108.38;28.95;;;3.10;99.90;;;;;;5071179;28;20747;-69